sensor_id;sensor_type;location;lat;lon;timestamp;pressure;altitude;pressure_sealevel;temperature;humidity
73280;BME280;61511;49.286;9.700;2022-07-06T00:01:27;97754.44;;;16.43;55.56
73280;BME280;61511;49.286;9.700;2022-07-06T00:03:56;97756.78;;;16.35;54.97
73280;BME280;61511;49.286;9.700;2022-07-06T00:06:24;97755.56;;;16.37;55.91
73280;BME280;61511;49.286;9.700;2022-07-06T00:08:54;97764.22;;;16.39;55.65
73280;BME280;61511;49.286;9.700;2022-07-06T00:11:22;97755.41;;;16.31;56.41
73280;BME280;61511;49.286;9.700;2022-07-06T00:13:50;97762.69;;;16.28;56.60
73280;BME280;61511;49.286;9.700;2022-07-06T00:16:18;97765.19;;;16.26;55.98
73280;BME280;61511;49.286;9.700;2022-07-06T00:18:46;97756.22;;;16.22;56.67
73280;BME280;61511;49.286;9.700;2022-07-06T00:21:14;97764.72;;;16.19;56.88
73280;BME280;61511;49.286;9.700;2022-07-06T00:23:43;97771.06;;;16.19;56.58
73280;BME280;61511;49.286;9.700;2022-07-06T00:26:12;97771.09;;;16.10;57.18
73280;BME280;61511;49.286;9.700;2022-07-06T00:28:40;97772.94;;;16.04;56.72
73280;BME280;61511;49.286;9.700;2022-07-06T00:31:08;97775.28;;;15.97;57.62
73280;BME280;61511;49.286;9.700;2022-07-06T00:33:36;97776.22;;;15.94;58.12
73280;BME280;61511;49.286;9.700;2022-07-06T00:36:04;97771.28;;;15.89;57.96
73280;BME280;61511;49.286;9.700;2022-07-06T00:38:32;97769.88;;;15.84;58.30
73280;BME280;61511;49.286;9.700;2022-07-06T00:41:00;97774.06;;;15.89;59.01
73280;BME280;61511;49.286;9.700;2022-07-06T00:43:46;97768.81;;;15.82;58.45
73280;BME280;61511;49.286;9.700;2022-07-06T00:46:14;97768.50;;;15.80;58.57
73280;BME280;61511;49.286;9.700;2022-07-06T00:48:42;97769.59;;;15.73;59.43
73280;BME280;61511;49.286;9.700;2022-07-06T00:51:12;97766.16;;;15.69;59.23
73280;BME280;61511;49.286;9.700;2022-07-06T00:53:40;97768.34;;;15.65;59.49
73280;BME280;61511;49.286;9.700;2022-07-06T00:56:08;97771.28;;;15.61;59.67
73280;BME280;61511;49.286;9.700;2022-07-06T00:58:39;97773.59;;;15.54;59.74
73280;BME280;61511;49.286;9.700;2022-07-06T01:01:07;97781.78;;;15.48;59.92
73280;BME280;61511;49.286;9.700;2022-07-06T01:03:35;97772.00;;;15.44;59.99
73280;BME280;61511;49.286;9.700;2022-07-06T01:06:03;97770.13;;;15.41;61.20
73280;BME280;61511;49.286;9.700;2022-07-06T01:08:31;97770.75;;;15.36;60.89
73280;BME280;61511;49.286;9.700;2022-07-06T01:11:00;97772.13;;;15.31;61.84
73280;BME280;61511;49.286;9.700;2022-07-06T01:13:30;97771.81;;;15.20;61.85
73280;BME280;61511;49.286;9.700;2022-07-06T01:16:00;97778.16;;;15.21;61.81
73280;BME280;61511;49.286;9.700;2022-07-06T01:18:28;97771.63;;;15.15;61.45
73280;BME280;61511;49.286;9.700;2022-07-06T01:21:08;97776.09;;;15.12;62.01
73280;BME280;61511;49.286;9.700;2022-07-06T01:23:41;97777.97;;;15.15;61.31
73280;BME280;61511;49.286;9.700;2022-07-06T01:26:13;97777.97;;;15.15;61.42
73280;BME280;61511;49.286;9.700;2022-07-06T01:28:41;97774.56;;;15.11;61.35
73280;BME280;61511;49.286;9.700;2022-07-06T01:31:18;97774.41;;;15.15;61.84
73280;BME280;61511;49.286;9.700;2022-07-06T01:33:48;97776.09;;;15.12;62.12
73280;BME280;61511;49.286;9.700;2022-07-06T01:36:17;97777.06;;;15.09;61.98
73280;BME280;61511;49.286;9.700;2022-07-06T01:38:47;97767.91;;;14.99;62.19
73280;BME280;61511;49.286;9.700;2022-07-06T01:41:15;97771.78;;;15.02;62.38
73280;BME280;61511;49.286;9.700;2022-07-06T01:43:44;97765.56;;;14.98;62.78
73280;BME280;61511;49.286;9.700;2022-07-06T01:46:12;97764.03;;;14.97;62.54
73280;BME280;61511;49.286;9.700;2022-07-06T01:48:40;97770.50;;;14.94;63.63
73280;BME280;61511;49.286;9.700;2022-07-06T01:51:08;97776.34;;;14.87;63.19
73280;BME280;61511;49.286;9.700;2022-07-06T01:53:40;97772.47;;;14.84;63.28
73280;BME280;61511;49.286;9.700;2022-07-06T01:56:08;97772.47;;;14.84;66.29
73280;BME280;61511;49.286;9.700;2022-07-06T01:58:37;97771.53;;;14.78;67.85
73280;BME280;61511;49.286;9.700;2022-07-06T02:01:09;97780.81;;;14.84;67.94
73280;BME280;61511;49.286;9.700;2022-07-06T02:03:38;97768.78;;;14.87;67.89
73280;BME280;61511;49.286;9.700;2022-07-06T02:06:07;97772.19;;;14.91;68.39
73280;BME280;61511;49.286;9.700;2022-07-06T02:08:36;97766.91;;;14.84;68.44
73280;BME280;61511;49.286;9.700;2022-07-06T02:11:06;97774.47;;;14.84;69.79
73280;BME280;61511;49.286;9.700;2022-07-06T02:13:35;97762.91;;;14.85;70.05
73280;BME280;61511;49.286;9.700;2022-07-06T02:16:03;97768.91;;;14.75;70.42
73280;BME280;61511;49.286;9.700;2022-07-06T02:18:32;97771.66;;;14.66;70.77
73280;BME280;61511;49.286;9.700;2022-07-06T02:21:00;97771.44;;;14.60;70.88
73280;BME280;61511;49.286;9.700;2022-07-06T02:23:28;97781.34;;;14.61;70.47
73280;BME280;61511;49.286;9.700;2022-07-06T02:25:56;97769.88;;;14.50;70.88
73280;BME280;61511;49.286;9.700;2022-07-06T02:28:26;97778.34;;;14.47;71.99
73280;BME280;61511;49.286;9.700;2022-07-06T02:30:54;97776.31;;;14.38;71.61
73280;BME280;61511;49.286;9.700;2022-07-06T02:33:22;97782.13;;;14.31;72.13
73280;BME280;61511;49.286;9.700;2022-07-06T02:35:50;97777.91;;;14.26;72.34
73280;BME280;61511;49.286;9.700;2022-07-06T02:38:18;97781.44;;;14.27;71.96
73280;BME280;61511;49.286;9.700;2022-07-06T02:40:47;97783.91;;;14.25;70.97
73280;BME280;61511;49.286;9.700;2022-07-06T02:43:15;97783.06;;;14.15;71.80
73280;BME280;61511;49.286;9.700;2022-07-06T02:45:45;97783.91;;;14.03;72.11
73280;BME280;61511;49.286;9.700;2022-07-06T02:48:13;97782.81;;;14.01;71.82
73280;BME280;61511;49.286;9.700;2022-07-06T02:50:41;97775.53;;;13.94;71.96
73280;BME280;61511;49.286;9.700;2022-07-06T02:53:09;97774.16;;;13.99;71.39
73280;BME280;61511;49.286;9.700;2022-07-06T02:55:37;97780.50;;;13.99;71.41
73280;BME280;61511;49.286;9.700;2022-07-06T02:58:05;97773.84;;;13.97;70.52
73280;BME280;61511;49.286;9.700;2022-07-06T03:00:33;97771.22;;;13.93;70.40
73280;BME280;61511;49.286;9.700;2022-07-06T03:03:02;97776.88;;;13.90;70.69
73280;BME280;61511;49.286;9.700;2022-07-06T03:05:31;97774.25;;;13.86;71.13
73280;BME280;61511;49.286;9.700;2022-07-06T03:07:59;97774.56;;;13.88;70.80
73280;BME280;61511;49.286;9.700;2022-07-06T03:10:27;97776.88;;;13.90;69.52
73280;BME280;61511;49.286;9.700;2022-07-06T03:12:55;97783.69;;;13.89;69.74
73280;BME280;61511;49.286;9.700;2022-07-06T03:15:26;97786.88;;;13.87;71.07
73280;BME280;61511;49.286;9.700;2022-07-06T03:17:54;97782.94;;;13.76;72.31
73280;BME280;61511;49.286;9.700;2022-07-06T03:20:23;97782.16;;;13.75;72.67
73280;BME280;61511;49.286;9.700;2022-07-06T03:22:51;97789.63;;;13.65;73.29
73280;BME280;61511;49.286;9.700;2022-07-06T03:25:19;97789.63;;;13.65;73.52
73280;BME280;61511;49.286;9.700;2022-07-06T03:27:47;97789.44;;;13.60;73.45
73280;BME280;61511;49.286;9.700;2022-07-06T03:30:15;97792.97;;;13.60;73.51
73280;BME280;61511;49.286;9.700;2022-07-06T03:32:43;97799.00;;;13.46;74.36
73280;BME280;61511;49.286;9.700;2022-07-06T03:35:11;97794.25;;;13.47;74.65
73280;BME280;61511;49.286;9.700;2022-07-06T03:37:41;97791.28;;;13.41;74.83
73280;BME280;61511;49.286;9.700;2022-07-06T03:40:10;97796.47;;;13.39;74.37
73280;BME280;61511;49.286;9.700;2022-07-06T03:42:38;97796.25;;;13.46;74.14
73280;BME280;61511;49.286;9.700;2022-07-06T03:45:08;97803.28;;;13.38;73.65
73280;BME280;61511;49.286;9.700;2022-07-06T03:47:36;97796.47;;;13.39;73.01
73280;BME280;61511;49.286;9.700;2022-07-06T03:50:05;97798.50;;;13.39;73.08
73280;BME280;61511;49.286;9.700;2022-07-06T03:52:33;97797.41;;;13.36;72.28
73280;BME280;61511;49.286;9.700;2022-07-06T03:55:03;97808.16;;;13.34;71.62
73280;BME280;61511;49.286;9.700;2022-07-06T03:57:31;97814.69;;;13.40;71.25
73280;BME280;61511;49.286;9.700;2022-07-06T03:59:59;97808.81;;;13.38;71.48
73280;BME280;61511;49.286;9.700;2022-07-06T04:02:27;97809.91;;;13.41;72.04
73280;BME280;61511;49.286;9.700;2022-07-06T04:04:55;97805.59;;;13.40;71.87
73280;BME280;61511;49.286;9.700;2022-07-06T04:07:24;97804.16;;;13.35;71.99
73280;BME280;61511;49.286;9.700;2022-07-06T04:09:52;97813.47;;;13.41;71.13
73280;BME280;61511;49.286;9.700;2022-07-06T04:12:22;97813.00;;;13.43;70.69
73280;BME280;61511;49.286;9.700;2022-07-06T04:14:52;97812.78;;;13.50;70.56
73280;BME280;61511;49.286;9.700;2022-07-06T04:17:20;97822.53;;;13.54;70.67
73280;BME280;61511;49.286;9.700;2022-07-06T04:20:14;97816.09;;;13.57;70.28
73280;BME280;61511;49.286;9.700;2022-07-06T04:22:42;97817.06;;;13.63;70.00
73280;BME280;61511;49.286;9.700;2022-07-06T04:25:10;97820.03;;;13.69;69.25
73280;BME280;61511;49.286;9.700;2022-07-06T04:27:39;97823.78;;;13.75;69.71
73280;BME280;61511;49.286;9.700;2022-07-06T04:30:09;97823.34;;;13.77;70.30
73280;BME280;61511;49.286;9.700;2022-07-06T04:32:37;97828.31;;;13.82;69.90
73280;BME280;61511;49.286;9.700;2022-07-06T04:35:06;97835.63;;;13.88;69.56
73280;BME280;61511;49.286;9.700;2022-07-06T04:37:34;97843.81;;;13.92;72.49
73280;BME280;61511;49.286;9.700;2022-07-06T04:40:02;97846.47;;;13.95;73.43
73280;BME280;61511;49.286;9.700;2022-07-06T04:42:30;97851.19;;;14.07;72.70
73280;BME280;61511;49.286;9.700;2022-07-06T04:45:00;97852.38;;;14.19;73.14
73280;BME280;61511;49.286;9.700;2022-07-06T04:47:28;97854.88;;;14.26;73.68
73280;BME280;61511;49.286;9.700;2022-07-06T04:49:56;97852.53;;;14.24;73.71
73280;BME280;61511;49.286;9.700;2022-07-06T04:52:24;97853.97;;;14.29;73.50
73280;BME280;61511;49.286;9.700;2022-07-06T04:54:52;97859.63;;;14.38;73.99
73280;BME280;61511;49.286;9.700;2022-07-06T04:57:20;97851.66;;;14.49;73.07
73280;BME280;61511;49.286;9.700;2022-07-06T04:59:48;97859.63;;;14.60;72.30
73280;BME280;61511;49.286;9.700;2022-07-06T05:02:17;97859.06;;;14.74;71.75
73280;BME280;61511;49.286;9.700;2022-07-06T05:04:46;97863.75;;;14.86;71.17
73280;BME280;61511;49.286;9.700;2022-07-06T05:07:14;97860.69;;;14.93;70.88
73280;BME280;61511;49.286;9.700;2022-07-06T05:09:42;97866.31;;;15.02;67.02
73280;BME280;61511;49.286;9.700;2022-07-06T05:12:17;97865.56;;;15.11;66.43
73280;BME280;61511;49.286;9.700;2022-07-06T05:14:45;97872.22;;;15.13;65.35
73280;BME280;61511;49.286;9.700;2022-07-06T05:17:15;97877.81;;;15.22;65.01
73280;BME280;61511;49.286;9.700;2022-07-06T05:19:44;97871.47;;;15.22;65.63
73280;BME280;61511;49.286;9.700;2022-07-06T05:22:12;97871.19;;;15.29;64.70
73280;BME280;61511;49.286;9.700;2022-07-06T05:24:40;97866.56;;;15.26;64.24
73280;BME280;61511;49.286;9.700;2022-07-06T05:27:08;97871.22;;;15.38;65.38
73280;BME280;61511;49.286;9.700;2022-07-06T05:29:36;97874.06;;;15.47;64.82
73280;BME280;61511;49.286;9.700;2022-07-06T05:32:05;97869.28;;;15.56;64.78
73280;BME280;61511;49.286;9.700;2022-07-06T05:34:34;97862.66;;;15.63;63.99
73280;BME280;61511;49.286;9.700;2022-07-06T05:37:04;97868.69;;;15.61;64.03
73280;BME280;61511;49.286;9.700;2022-07-06T05:39:32;97872.88;;;15.66;63.78
73280;BME280;61511;49.286;9.700;2022-07-06T05:42:00;97871.31;;;15.74;63.26
73280;BME280;61511;49.286;9.700;2022-07-06T05:44:28;97876.91;;;15.74;63.57
73280;BME280;61511;49.286;9.700;2022-07-06T05:46:56;97880.94;;;15.82;62.86
73280;BME280;61511;49.286;9.700;2022-07-06T05:49:44;97885.59;;;15.94;62.97
73280;BME280;61511;49.286;9.700;2022-07-06T05:52:31;97886.22;;;16.07;63.46
73280;BME280;61511;49.286;9.700;2022-07-06T05:54:59;97884.50;;;16.28;63.42
73280;BME280;61511;49.286;9.700;2022-07-06T05:57:27;97875.69;;;16.57;61.65
73280;BME280;61511;49.286;9.700;2022-07-06T05:59:55;97887.22;;;16.82;60.67
73280;BME280;61511;49.286;9.700;2022-07-06T06:02:23;97875.31;;;16.91;60.61
73280;BME280;61511;49.286;9.700;2022-07-06T06:04:52;97878.22;;;16.96;60.37
73280;BME280;61511;49.286;9.700;2022-07-06T06:07:21;97880.50;;;17.07;60.02
73280;BME280;61511;49.286;9.700;2022-07-06T06:09:50;97878.16;;;17.15;59.44
73280;BME280;61511;49.286;9.700;2022-07-06T06:12:19;97881.88;;;17.12;59.57
73280;BME280;61511;49.286;9.700;2022-07-06T06:14:47;97885.72;;;17.23;59.55
73280;BME280;61511;49.286;9.700;2022-07-06T06:17:15;97899.97;;;17.25;58.89
73280;BME280;61511;49.286;9.700;2022-07-06T06:19:42;97889.53;;;17.35;58.01
73280;BME280;61511;49.286;9.700;2022-07-06T06:22:10;97896.16;;;17.46;57.63
73280;BME280;61511;49.286;9.700;2022-07-06T06:24:38;97879.69;;;17.57;57.34
73280;BME280;61511;49.286;9.700;2022-07-06T06:27:07;97886.16;;;17.63;57.03
73280;BME280;61511;49.286;9.700;2022-07-06T06:29:35;97894.31;;;17.76;56.46
73280;BME280;61511;49.286;9.700;2022-07-06T06:32:03;97892.25;;;17.86;56.70
73280;BME280;61511;49.286;9.700;2022-07-06T06:34:32;97884.44;;;17.90;56.00
73280;BME280;61511;49.286;9.700;2022-07-06T06:37:00;97891.69;;;17.96;55.70
73280;BME280;61511;49.286;9.700;2022-07-06T06:39:29;97896.25;;;18.08;56.18
73280;BME280;61511;49.286;9.700;2022-07-06T06:41:56;97893.34;;;18.26;56.16
73280;BME280;61511;49.286;9.700;2022-07-06T06:44:26;97893.25;;;18.35;54.52
73280;BME280;61511;49.286;9.700;2022-07-06T06:46:54;97893.69;;;18.58;55.94
73280;BME280;61511;49.286;9.700;2022-07-06T06:49:22;97884.66;;;18.77;54.86
73280;BME280;61511;49.286;9.700;2022-07-06T06:51:50;97891.13;;;18.83;54.03
73280;BME280;61511;49.286;9.700;2022-07-06T06:54:38;97883.31;;;19.02;54.26
73280;BME280;61511;49.286;9.700;2022-07-06T06:57:06;97884.81;;;19.18;52.07
73280;BME280;61511;49.286;9.700;2022-07-06T06:59:35;97879.41;;;19.29;53.17
73280;BME280;61511;49.286;9.700;2022-07-06T07:02:04;97895.66;;;19.59;53.52
73280;BME280;61511;49.286;9.700;2022-07-06T07:04:31;97891.84;;;19.77;52.00
73280;BME280;61511;49.286;9.700;2022-07-06T07:06:59;97893.28;;;19.87;51.98
73280;BME280;61511;49.286;9.700;2022-07-06T07:09:28;97893.97;;;20.02;50.85
73280;BME280;61511;49.286;9.700;2022-07-06T07:11:55;97892.16;;;20.19;50.42
73280;BME280;61511;49.286;9.700;2022-07-06T07:14:24;97896.13;;;20.27;50.02
73280;BME280;61511;49.286;9.700;2022-07-06T07:16:55;97891.75;;;20.47;50.08
73280;BME280;61511;49.286;9.700;2022-07-06T07:19:23;97894.94;;;20.60;49.40
73280;BME280;61511;49.286;9.700;2022-07-06T07:21:51;97896.94;;;20.79;49.17
73280;BME280;61511;49.286;9.700;2022-07-06T07:24:19;97897.34;;;20.98;48.25
73280;BME280;61511;49.286;9.700;2022-07-06T07:26:47;97901.66;;;21.19;47.16
73280;BME280;61511;49.286;9.700;2022-07-06T07:29:16;97909.13;;;21.28;47.20
73280;BME280;61511;49.286;9.700;2022-07-06T07:31:44;97907.69;;;21.38;47.30
73280;BME280;61511;49.286;9.700;2022-07-06T07:34:13;97906.28;;;21.59;47.06
73280;BME280;61511;49.286;9.700;2022-07-06T07:36:42;97899.28;;;21.80;46.00
73280;BME280;61511;49.286;9.700;2022-07-06T07:39:11;97896.06;;;21.93;46.44
73280;BME280;61511;49.286;9.700;2022-07-06T07:41:39;97900.47;;;22.10;46.50
73280;BME280;61511;49.286;9.700;2022-07-06T07:44:07;97904.16;;;22.38;44.79
73280;BME280;61511;49.286;9.700;2022-07-06T07:46:35;97902.50;;;22.63;44.40
73280;BME280;61511;49.286;9.700;2022-07-06T07:49:03;97907.31;;;22.52;45.26
73280;BME280;61511;49.286;9.700;2022-07-06T07:51:33;97897.38;;;22.67;44.31
73280;BME280;61511;49.286;9.700;2022-07-06T07:54:01;97896.41;;;22.98;43.48
73280;BME280;61511;49.286;9.700;2022-07-06T07:56:29;97899.75;;;23.08;43.73
73280;BME280;61511;49.286;9.700;2022-07-06T07:58:57;97896.44;;;23.31;42.47
73280;BME280;61511;49.286;9.700;2022-07-06T08:01:26;97900.78;;;23.54;41.69
73280;BME280;61511;49.286;9.700;2022-07-06T08:03:54;97894.13;;;23.63;41.64
73280;BME280;61511;49.286;9.700;2022-07-06T08:06:23;97896.94;;;23.74;42.35
73280;BME280;61511;49.286;9.700;2022-07-06T08:08:53;97891.03;;;23.72;40.77
73280;BME280;61511;49.286;9.700;2022-07-06T08:11:21;97899.47;;;23.94;40.30
73280;BME280;61511;49.286;9.700;2022-07-06T08:13:51;97897.28;;;24.28;40.18
73280;BME280;61511;49.286;9.700;2022-07-06T08:16:19;97895.97;;;24.40;39.62
73280;BME280;61511;49.286;9.700;2022-07-06T08:18:47;97891.16;;;24.76;39.47
73280;BME280;61511;49.286;9.700;2022-07-06T08:21:15;97894.47;;;24.85;39.11
73280;BME280;61511;49.286;9.700;2022-07-06T08:23:54;97887.28;;;25.20;38.46
73280;BME280;61511;49.286;9.700;2022-07-06T08:26:22;97889.13;;;24.76;38.69
73280;BME280;61511;49.286;9.700;2022-07-06T08:28:50;97888.47;;;24.54;38.21
73280;BME280;61511;49.286;9.700;2022-07-06T08:31:19;97894.78;;;24.71;38.83
73280;BME280;61511;49.286;9.700;2022-07-06T08:34:07;97886.88;;;25.05;39.03
73280;BME280;61511;49.286;9.700;2022-07-06T08:36:36;97901.28;;;25.36;37.41
73280;BME280;61511;49.286;9.700;2022-07-06T08:39:06;97899.75;;;25.35;38.50
73280;BME280;61511;49.286;9.700;2022-07-06T08:41:36;97898.06;;;25.21;39.65
73280;BME280;61511;49.286;9.700;2022-07-06T08:44:07;97900.16;;;25.50;37.91
73280;BME280;61511;49.286;9.700;2022-07-06T08:46:37;97896.41;;;25.66;37.02
73280;BME280;61511;49.286;9.700;2022-07-06T08:49:06;97898.53;;;26.09;36.09
73280;BME280;61511;49.286;9.700;2022-07-06T08:51:35;97888.25;;;26.11;36.77
73280;BME280;61511;49.286;9.700;2022-07-06T08:54:04;97899.69;;;26.43;36.39
73280;BME280;61511;49.286;9.700;2022-07-06T08:56:34;97904.50;;;26.67;36.41
73280;BME280;61511;49.286;9.700;2022-07-06T08:59:02;97909.75;;;26.81;34.34
73280;BME280;61511;49.286;9.700;2022-07-06T09:01:31;97906.53;;;27.09;32.92
73280;BME280;61511;49.286;9.700;2022-07-06T09:04:03;97903.19;;;27.42;33.02
73280;BME280;61511;49.286;9.700;2022-07-06T09:06:33;97902.53;;;28.07;33.58
73280;BME280;61511;49.286;9.700;2022-07-06T09:09:06;97898.53;;;29.64;29.83
73280;BME280;61511;49.286;9.700;2022-07-06T09:11:35;97906.63;;;31.09;28.23
73280;BME280;61511;49.286;9.700;2022-07-06T09:14:04;97902.19;;;32.04;26.85
73280;BME280;61511;49.286;9.700;2022-07-06T09:16:32;97891.19;;;33.10;25.28
73280;BME280;61511;49.286;9.700;2022-07-06T09:19:05;97905.72;;;30.06;29.72
73280;BME280;61511;49.286;9.700;2022-07-06T09:21:34;97910.31;;;30.38;29.28
73280;BME280;61511;49.286;9.700;2022-07-06T09:24:07;97902.53;;;34.07;23.28
73280;BME280;61511;49.286;9.700;2022-07-06T09:26:37;97917.63;;;34.24;23.27
73280;BME280;61511;49.286;9.700;2022-07-06T09:29:05;97908.66;;;34.03;23.45
73280;BME280;61511;49.286;9.700;2022-07-06T09:31:34;97920.25;;;31.69;26.64
73280;BME280;61511;49.286;9.700;2022-07-06T09:34:04;97914.97;;;34.02;24.34
73280;BME280;61511;49.286;9.700;2022-07-06T09:36:41;97916.31;;;31.06;27.32
73280;BME280;61511;49.286;9.700;2022-07-06T09:39:21;97924.03;;;30.18;27.83
73280;BME280;61511;49.286;9.700;2022-07-06T09:41:52;97932.69;;;28.10;30.73
73280;BME280;61511;49.286;9.700;2022-07-06T09:44:21;97928.69;;;27.24;33.21
73280;BME280;61511;49.286;9.700;2022-07-06T09:46:51;97921.84;;;27.51;32.65
73280;BME280;61511;49.286;9.700;2022-07-06T09:49:20;97926.03;;;29.41;29.96
73280;BME280;61511;49.286;9.700;2022-07-06T09:51:50;97930.50;;;35.19;21.89
73280;BME280;61511;49.286;9.700;2022-07-06T09:54:18;97926.97;;;34.08;24.33
73280;BME280;61511;49.286;9.700;2022-07-06T09:56:47;97931.88;;;31.86;27.04
73280;BME280;61511;49.286;9.700;2022-07-06T09:59:21;97926.94;;;29.98;28.96
73280;BME280;61511;49.286;9.700;2022-07-06T10:01:52;97921.88;;;28.22;31.40
73280;BME280;61511;49.286;9.700;2022-07-06T10:04:21;97931.19;;;26.95;33.41
73280;BME280;61511;49.286;9.700;2022-07-06T10:06:50;97937.63;;;26.77;34.52
73280;BME280;61511;49.286;9.700;2022-07-06T10:09:19;97934.84;;;26.90;33.36
73280;BME280;61511;49.286;9.700;2022-07-06T10:11:50;97937.75;;;25.99;36.26
73280;BME280;61511;49.286;9.700;2022-07-06T10:14:21;97934.31;;;26.06;35.89
73280;BME280;61511;49.286;9.700;2022-07-06T10:16:50;97918.75;;;32.05;26.40
73280;BME280;61511;49.286;9.700;2022-07-06T10:19:20;97922.28;;;33.71;23.23
73280;BME280;61511;49.286;9.700;2022-07-06T10:21:48;97925.19;;;30.23;27.44
73280;BME280;61511;49.286;9.700;2022-07-06T10:24:19;97925.47;;;28.09;31.14
73280;BME280;61511;49.286;9.700;2022-07-06T10:26:47;97933.03;;;26.31;34.21
73280;BME280;61511;49.286;9.700;2022-07-06T10:29:15;97935.19;;;25.01;36.59
73280;BME280;61511;49.286;9.700;2022-07-06T10:31:46;97928.06;;;24.37;38.68
73280;BME280;61511;49.286;9.700;2022-07-06T10:34:17;97925.91;;;25.06;38.50
73280;BME280;61511;49.286;9.700;2022-07-06T10:36:49;97923.44;;;32.41;27.35
73280;BME280;61511;49.286;9.700;2022-07-06T10:39:32;97924.25;;;35.30;21.40
73280;BME280;61511;49.286;9.700;2022-07-06T10:42:43;97929.50;;;36.33;21.05
73280;BME280;61511;49.286;9.700;2022-07-06T10:45:14;97925.25;;;32.83;24.73
73280;BME280;61511;49.286;9.700;2022-07-06T10:47:43;97927.94;;;30.36;26.56
73280;BME280;61511;49.286;9.700;2022-07-06T10:50:11;97940.13;;;28.13;31.98
73280;BME280;61511;49.286;9.700;2022-07-06T10:52:52;97941.84;;;26.89;34.82
73280;BME280;61511;49.286;9.700;2022-07-06T10:55:29;97939.63;;;26.40;34.96
73280;BME280;61511;49.286;9.700;2022-07-06T10:57:58;97937.19;;;26.01;36.01
73280;BME280;61511;49.286;9.700;2022-07-06T11:00:47;97932.50;;;30.67;28.55
73280;BME280;61511;49.286;9.700;2022-07-06T11:03:43;97931.91;;;28.49;31.55
73280;BME280;61511;49.286;9.700;2022-07-06T11:06:16;97940.69;;;26.79;34.78
73280;BME280;61511;49.286;9.700;2022-07-06T11:08:50;97930.75;;;30.00;30.06
73280;BME280;61511;49.286;9.700;2022-07-06T11:11:21;97924.22;;;35.03;22.54
73280;BME280;61511;49.286;9.700;2022-07-06T11:14:01;97919.75;;;33.99;23.84
73280;BME280;61511;49.286;9.700;2022-07-06T11:16:30;97914.13;;;32.33;25.83
73280;BME280;61511;49.286;9.700;2022-07-06T11:19:10;97930.94;;;29.40;29.12
73280;BME280;61511;49.286;9.700;2022-07-06T11:21:40;97931.09;;;32.31;25.74
73280;BME280;61511;49.286;9.700;2022-07-06T11:24:10;97916.13;;;35.09;22.84
73280;BME280;61511;49.286;9.700;2022-07-06T11:26:41;97918.06;;;35.33;22.44
73280;BME280;61511;49.286;9.700;2022-07-06T11:29:10;97912.88;;;35.95;21.56
73280;BME280;61511;49.286;9.700;2022-07-06T11:31:40;97919.25;;;36.77;19.33
73280;BME280;61511;49.286;9.700;2022-07-06T11:34:11;97913.91;;;37.41;19.56
73280;BME280;61511;49.286;9.700;2022-07-06T11:36:40;97915.38;;;34.57;21.54
73280;BME280;61511;49.286;9.700;2022-07-06T11:39:12;97908.56;;;32.57;24.76
73280;BME280;61511;49.286;9.700;2022-07-06T11:41:41;97920.38;;;31.25;26.78
73280;BME280;61511;49.286;9.700;2022-07-06T11:44:17;97917.06;;;29.37;29.08
73280;BME280;61511;49.286;9.700;2022-07-06T11:46:45;97910.31;;;30.09;28.48
73280;BME280;61511;49.286;9.700;2022-07-06T11:49:15;97918.00;;;28.85;30.82
73280;BME280;61511;49.286;9.700;2022-07-06T11:51:45;97913.06;;;27.81;30.47
73280;BME280;61511;49.286;9.700;2022-07-06T11:54:14;97912.72;;;27.08;32.53
73280;BME280;61511;49.286;9.700;2022-07-06T11:56:47;97911.72;;;29.54;29.34
73280;BME280;61511;49.286;9.700;2022-07-06T11:59:16;97907.34;;;30.94;25.94
73280;BME280;61511;49.286;9.700;2022-07-06T12:01:47;97898.91;;;34.23;22.74
73280;BME280;61511;49.286;9.700;2022-07-06T12:04:16;97893.13;;;37.33;20.28
73280;BME280;61511;49.286;9.700;2022-07-06T12:06:44;97894.53;;;37.13;20.35
73280;BME280;61511;49.286;9.700;2022-07-06T12:09:13;97900.47;;;31.55;24.19
73280;BME280;61511;49.286;9.700;2022-07-06T12:11:44;97889.72;;;28.79;29.07
73280;BME280;61511;49.286;9.700;2022-07-06T12:14:14;97891.31;;;27.57;31.10
73280;BME280;61511;49.286;9.700;2022-07-06T12:16:43;97899.66;;;29.20;29.29
73280;BME280;61511;49.286;9.700;2022-07-06T12:19:11;97891.41;;;28.22;30.75
73280;BME280;61511;49.286;9.700;2022-07-06T12:21:46;97889.53;;;28.98;30.08
73280;BME280;61511;49.286;9.700;2022-07-06T12:24:19;97889.47;;;29.24;28.85
73280;BME280;61511;49.286;9.700;2022-07-06T12:26:48;97882.69;;;29.55;27.83
73280;BME280;61511;49.286;9.700;2022-07-06T12:29:17;97881.00;;;28.64;28.17
73280;BME280;61511;49.286;9.700;2022-07-06T12:31:49;97877.41;;;27.40;31.45
73280;BME280;61511;49.286;9.700;2022-07-06T12:34:18;97888.06;;;26.47;33.10
73280;BME280;61511;49.286;9.700;2022-07-06T12:36:50;97877.44;;;26.90;32.49
73280;BME280;61511;49.286;9.700;2022-07-06T12:39:19;97889.88;;;27.19;33.73
73280;BME280;61511;49.286;9.700;2022-07-06T12:41:49;97867.13;;;27.82;32.42
73280;BME280;61511;49.286;9.700;2022-07-06T12:44:19;97868.47;;;27.94;32.88
73280;BME280;61511;49.286;9.700;2022-07-06T12:46:48;97877.28;;;27.91;31.20
73280;BME280;61511;49.286;9.700;2022-07-06T12:49:19;97877.97;;;27.97;29.83
73280;BME280;61511;49.286;9.700;2022-07-06T12:52:00;97870.50;;;27.67;30.68
73280;BME280;61511;49.286;9.700;2022-07-06T12:54:31;97866.59;;;28.23;29.44
73280;BME280;61511;49.286;9.700;2022-07-06T12:57:05;97879.06;;;28.20;31.11
73280;BME280;61511;49.286;9.700;2022-07-06T12:59:37;97878.25;;;27.04;32.12
73280;BME280;61511;49.286;9.700;2022-07-06T13:02:07;97882.47;;;26.60;32.34
73280;BME280;61511;49.286;9.700;2022-07-06T13:04:36;97881.13;;;27.17;31.45
73280;BME280;61511;49.286;9.700;2022-07-06T13:07:17;97870.41;;;27.10;32.65
73280;BME280;61511;49.286;9.700;2022-07-06T13:09:46;97871.63;;;26.45;33.48
73280;BME280;61511;49.286;9.700;2022-07-06T13:12:14;97866.19;;;25.21;33.86
73280;BME280;61511;49.286;9.700;2022-07-06T13:14:41;97873.91;;;25.20;35.76